PLT2810 SBSP-SBIL
Flight info
| Callsign | PLT2810 |
|---|---|
| Flight time | N/A |
| Altitude | 39000 |
| Route | VUMEV UZ14 DALOX |
| Aircraft | A20N/M-SDE2E3FGHIRWXY/LB1 |
Departure
| Time | N/A |
|---|---|
| Airport | Congonhas–Deputado Freitas Nobre Airport (SBSP) |
Arrival
| Time | 2026-04-20 00:02 |
|---|---|
| Airport | Bahia - Jorge Amado Airport (SBIL) |
| Time | Latitude | Longitude | Altitude | Speed | Heading |
|---|---|---|---|---|---|
| 2026-04-19 22:32 | -23.13497 | -45.98589 | 24424 ft | 415 kts | 360° |
| 2026-04-19 22:32 | -23.10609 | -45.98488 | 25031 ft | 417 kts | 360° |
| 2026-04-19 22:33 | -23.07682 | -45.98386 | 25636 ft | 419 kts | 359° |
| 2026-04-19 22:33 | -23.04761 | -45.98285 | 26216 ft | 421 kts | 359° |
| 2026-04-19 22:33 | -23.01826 | -45.98183 | 26638 ft | 426 kts | 359° |
| 2026-04-19 22:33 | -22.98818 | -45.98080 | 27036 ft | 432 kts | 359° |
| 2026-04-19 22:34 | -22.95820 | -45.97976 | 27523 ft | 435 kts | 359° |
| 2026-04-19 22:34 | -22.92762 | -45.97862 | 28053 ft | 437 kts | 1° |
| 2026-04-19 22:34 | -22.89754 | -45.97367 | 28539 ft | 442 kts | 12° |
| 2026-04-19 22:34 | -22.86859 | -45.96225 | 29021 ft | 447 kts | 24° |
| 2026-04-19 22:35 | -22.84180 | -45.94494 | 29486 ft | 450 kts | 32° |
| 2026-04-19 22:35 | -22.81593 | -45.92542 | 29893 ft | 454 kts | 34° |
| 2026-04-19 22:35 | -22.79014 | -45.90488 | 30264 ft | 458 kts | 35° |
| 2026-04-19 22:35 | -22.76485 | -45.88428 | 30619 ft | 461 kts | 36° |
| 2026-04-19 22:36 | -22.73926 | -45.86335 | 30979 ft | 464 kts | 36° |
| 2026-04-19 22:36 | -22.71337 | -45.84220 | 31390 ft | 465 kts | 36° |
| 2026-04-19 22:36 | -22.68756 | -45.82116 | 31850 ft | 465 kts | 36° |
| 2026-04-19 22:36 | -22.66160 | -45.80003 | 32275 ft | 465 kts | 36° |
| 2026-04-19 22:37 | -22.63549 | -45.77883 | 32665 ft | 466 kts | 36° |
| 2026-04-19 22:37 | -22.60974 | -45.75792 | 33060 ft | 466 kts | 36° |
| 2026-04-19 22:37 | -22.58389 | -45.73695 | 33451 ft | 466 kts | 35° |
| 2026-04-19 22:37 | -22.55788 | -45.71586 | 33835 ft | 467 kts | 35° |
| 2026-04-19 22:38 | -22.53180 | -45.69474 | 34238 ft | 466 kts | 35° |
| 2026-04-19 22:38 | -22.50590 | -45.67377 | 34607 ft | 466 kts | 35° |
| 2026-04-19 22:38 | -22.47970 | -45.65257 | 34968 ft | 466 kts | 35° |
| 2026-04-19 22:38 | -22.45367 | -45.63152 | 35312 ft | 466 kts | 35° |
| 2026-04-19 22:39 | -22.42789 | -45.61068 | 35649 ft | 466 kts | 35° |
| 2026-04-19 22:39 | -22.40196 | -45.58974 | 35976 ft | 466 kts | 35° |
| 2026-04-19 22:39 | -22.37584 | -45.56865 | 36277 ft | 467 kts | 35° |
| 2026-04-19 22:39 | -22.34965 | -45.54749 | 36564 ft | 467 kts | 35° |
| 2026-04-19 22:40 | -22.32370 | -45.52656 | 36841 ft | 467 kts | 35° |
| 2026-04-19 22:40 | -22.29756 | -45.50549 | 37107 ft | 468 kts | 35° |
| 2026-04-19 22:40 | -22.27140 | -45.48440 | 37363 ft | 468 kts | 35° |
| 2026-04-19 22:40 | -22.24551 | -45.46354 | 37588 ft | 469 kts | 35° |
| 2026-04-19 22:41 | -22.21928 | -45.44242 | 37791 ft | 471 kts | 35° |
| 2026-04-19 22:41 | -22.19277 | -45.42108 | 37984 ft | 472 kts | 35° |
| 2026-04-19 22:41 | -22.16670 | -45.40011 | 38169 ft | 474 kts | 35° |
| 2026-04-19 22:41 | -22.14005 | -45.37868 | 38356 ft | 475 kts | 35° |
| 2026-04-19 22:42 | -22.11344 | -45.35729 | 38520 ft | 477 kts | 35° |
| 2026-04-19 22:42 | -22.08669 | -45.33579 | 38682 ft | 478 kts | 34° |
| 2026-04-19 22:42 | -22.05997 | -45.31434 | 38849 ft | 479 kts | 34° |
| 2026-04-19 22:42 | -22.03338 | -45.29301 | 39024 ft | 480 kts | 34° |
| 2026-04-19 22:43 | -22.00644 | -45.27140 | 39124 ft | 481 kts | 34° |
| 2026-04-19 22:43 | -21.95367 | -45.22910 | 39115 ft | 482 kts | 34° |
| 2026-04-19 22:44 | -21.89953 | -45.18574 | 39103 ft | 483 kts | 34° |
| 2026-04-19 22:44 | -21.84543 | -45.14245 | 39101 ft | 483 kts | 34° |
| 2026-04-19 22:45 | -21.79143 | -45.09927 | 39099 ft | 482 kts | 34° |
| 2026-04-19 22:45 | -21.73767 | -45.05633 | 39102 ft | 482 kts | 34° |
| 2026-04-19 22:46 | -21.68398 | -45.01351 | 39104 ft | 482 kts | 34° |
| 2026-04-19 22:46 | -21.62976 | -44.97030 | 39103 ft | 482 kts | 34° |
| 2026-04-19 22:47 | -21.57562 | -44.92717 | 39095 ft | 482 kts | 34° |
| 2026-04-19 22:47 | -21.52166 | -44.88426 | 39094 ft | 483 kts | 34° |
| 2026-04-19 22:48 | -21.46793 | -44.84155 | 39098 ft | 482 kts | 34° |
| 2026-04-19 22:48 | -21.41389 | -44.79862 | 39098 ft | 483 kts | 34° |
| 2026-04-19 22:49 | -21.35964 | -44.75559 | 39100 ft | 483 kts | 34° |
| 2026-04-19 22:49 | -21.30554 | -44.71272 | 39097 ft | 484 kts | 34° |
| 2026-04-19 22:50 | -21.25130 | -44.66976 | 39099 ft | 482 kts | 34° |
| 2026-04-19 22:50 | -21.19760 | -44.62725 | 39096 ft | 483 kts | 34° |
| 2026-04-19 22:51 | -21.14320 | -44.58427 | 39096 ft | 483 kts | 34° |
| 2026-04-19 22:51 | -21.06219 | -44.52027 | 39099 ft | 483 kts | 34° |
| 2026-04-19 22:52 | -21.00789 | -44.47745 | 39099 ft | 483 kts | 34° |
| 2026-04-19 22:52 | -20.95384 | -44.43434 | 39104 ft | 484 kts | 35° |
| 2026-04-19 22:53 | -20.90091 | -44.39031 | 39113 ft | 484 kts | 36° |
| 2026-04-19 22:53 | -20.84745 | -44.34583 | 39110 ft | 483 kts | 35° |
| 2026-04-19 22:54 | -20.79443 | -44.30191 | 39122 ft | 482 kts | 35° |
| 2026-04-19 22:54 | -20.74134 | -44.25801 | 39121 ft | 482 kts | 35° |
| 2026-04-19 22:55 | -20.68825 | -44.21417 | 39113 ft | 483 kts | 35° |
| 2026-04-19 22:55 | -20.63457 | -44.16987 | 39113 ft | 483 kts | 36° |
| 2026-04-19 22:56 | -20.58188 | -44.12557 | 39105 ft | 483 kts | 36° |
| 2026-04-19 22:56 | -20.52913 | -44.08096 | 39106 ft | 483 kts | 36° |
| 2026-04-19 22:57 | -20.47621 | -44.03690 | 39099 ft | 482 kts | 35° |
| 2026-04-19 22:57 | -20.42297 | -43.99350 | 39100 ft | 482 kts | 35° |
| 2026-04-19 22:58 | -20.36956 | -43.94992 | 39104 ft | 482 kts | 35° |
| 2026-04-19 22:58 | -20.31636 | -43.90647 | 39102 ft | 482 kts | 35° |
| 2026-04-19 22:59 | -20.26315 | -43.86304 | 39105 ft | 483 kts | 35° |
| 2026-04-19 22:59 | -20.20951 | -43.81926 | 39108 ft | 483 kts | 35° |
| 2026-04-19 23:00 | -20.15618 | -43.77580 | 39113 ft | 483 kts | 35° |
| 2026-04-19 23:00 | -20.10287 | -43.73238 | 39110 ft | 483 kts | 35° |
| 2026-04-19 23:01 | -20.04927 | -43.68876 | 39109 ft | 483 kts | 35° |
| 2026-04-19 23:01 | -19.99667 | -43.64597 | 39111 ft | 483 kts | 35° |
| 2026-04-19 23:02 | -19.94352 | -43.60280 | 39104 ft | 482 kts | 35° |
| 2026-04-19 23:02 | -19.89006 | -43.55938 | 39109 ft | 482 kts | 35° |
| 2026-04-19 23:03 | -19.83670 | -43.51602 | 39097 ft | 482 kts | 35° |
| 2026-04-19 23:03 | -19.78330 | -43.47263 | 39096 ft | 482 kts | 35° |
| 2026-04-19 23:04 | -19.73019 | -43.42946 | 39090 ft | 482 kts | 35° |
| 2026-04-19 23:04 | -19.67679 | -43.38610 | 39090 ft | 482 kts | 35° |
| 2026-04-19 23:05 | -19.62331 | -43.34280 | 39091 ft | 482 kts | 34° |
| 2026-04-19 23:05 | -19.56998 | -43.29962 | 39081 ft | 481 kts | 34° |
| 2026-04-19 23:06 | -19.51704 | -43.25676 | 39074 ft | 481 kts | 34° |
| 2026-04-19 23:06 | -19.46370 | -43.21362 | 39080 ft | 481 kts | 34° |
| 2026-04-19 23:07 | -19.41026 | -43.17042 | 39066 ft | 481 kts | 34° |
| 2026-04-19 23:07 | -19.35719 | -43.12756 | 39063 ft | 481 kts | 34° |
| 2026-04-19 23:08 | -19.30369 | -43.08439 | 39046 ft | 482 kts | 34° |
| 2026-04-19 23:08 | -19.25015 | -43.04125 | 39045 ft | 482 kts | 34° |
| 2026-04-19 23:09 | -19.19691 | -42.99835 | 39033 ft | 482 kts | 34° |
| 2026-04-19 23:09 | -19.14360 | -42.95543 | 39034 ft | 482 kts | 34° |
| 2026-04-19 23:10 | -19.09004 | -42.91237 | 39036 ft | 482 kts | 34° |
| 2026-04-19 23:10 | -19.03683 | -42.86957 | 39032 ft | 481 kts | 34° |
| 2026-04-19 23:11 | -18.98318 | -42.82648 | 39039 ft | 481 kts | 34° |
| 2026-04-19 23:11 | -18.92985 | -42.78368 | 39042 ft | 482 kts | 34° |
| 2026-04-19 23:12 | -18.87635 | -42.74085 | 39053 ft | 481 kts | 34° |
| 2026-04-19 23:12 | -18.82300 | -42.69816 | 39065 ft | 481 kts | 34° |
| 2026-04-19 23:13 | -18.76973 | -42.65555 | 39072 ft | 481 kts | 34° |
| 2026-04-19 23:13 | -18.71641 | -42.61290 | 39077 ft | 481 kts | 34° |
| 2026-04-19 23:14 | -18.66291 | -42.57020 | 39071 ft | 481 kts | 34° |
| 2026-04-19 23:14 | -18.60950 | -42.52759 | 39055 ft | 481 kts | 34° |
| 2026-04-19 23:15 | -18.55618 | -42.48510 | 39046 ft | 481 kts | 34° |
| 2026-04-19 23:15 | -18.50271 | -42.44249 | 39039 ft | 481 kts | 34° |
| 2026-04-19 23:16 | -18.44924 | -42.39988 | 39032 ft | 481 kts | 34° |
| 2026-04-19 23:16 | -18.39551 | -42.35712 | 39038 ft | 481 kts | 34° |
| 2026-04-19 23:17 | -18.34216 | -42.31467 | 39035 ft | 481 kts | 33° |
| 2026-04-19 23:17 | -18.28863 | -42.27219 | 39043 ft | 481 kts | 33° |
| 2026-04-19 23:18 | -18.23521 | -42.22985 | 39049 ft | 482 kts | 33° |
| 2026-04-19 23:18 | -18.18172 | -42.18745 | 39029 ft | 481 kts | 33° |
| 2026-04-19 23:19 | -18.12803 | -42.14494 | 39009 ft | 481 kts | 33° |
| 2026-04-19 23:19 | -18.07432 | -42.10243 | 39001 ft | 482 kts | 33° |
| 2026-04-19 23:20 | -18.02066 | -42.05999 | 39003 ft | 483 kts | 33° |
| 2026-04-19 23:20 | -17.96768 | -42.01809 | 39016 ft | 484 kts | 33° |
| 2026-04-19 23:21 | -17.91401 | -41.97571 | 39034 ft | 484 kts | 33° |
| 2026-04-19 23:21 | -17.85995 | -41.93307 | 39047 ft | 483 kts | 33° |
| 2026-04-19 23:22 | -17.80632 | -41.89076 | 39052 ft | 482 kts | 33° |
| 2026-04-19 23:22 | -17.75262 | -41.84845 | 39054 ft | 482 kts | 33° |
| 2026-04-19 23:23 | -17.69891 | -41.80616 | 39053 ft | 481 kts | 33° |
| 2026-04-19 23:23 | -17.64538 | -41.76405 | 39043 ft | 481 kts | 33° |
| 2026-04-19 23:24 | -17.59204 | -41.72210 | 39036 ft | 480 kts | 33° |
| 2026-04-19 23:24 | -17.53819 | -41.67979 | 39029 ft | 480 kts | 33° |
| 2026-04-19 23:25 | -17.48471 | -41.63779 | 39022 ft | 480 kts | 33° |
| 2026-04-19 23:25 | -17.43144 | -41.59598 | 39021 ft | 479 kts | 33° |
| 2026-04-19 23:26 | -17.37786 | -41.55400 | 39020 ft | 479 kts | 32° |
| 2026-04-19 23:26 | -17.32465 | -41.51237 | 39020 ft | 479 kts | 32° |
| 2026-04-19 23:27 | -17.27117 | -41.47054 | 39022 ft | 479 kts | 32° |
| 2026-04-19 23:27 | -17.21761 | -41.42863 | 39029 ft | 479 kts | 32° |
| 2026-04-19 23:28 | -17.16422 | -41.38693 | 39029 ft | 478 kts | 32° |
| 2026-04-19 23:28 | -17.11082 | -41.34522 | 39030 ft | 478 kts | 32° |
| 2026-04-19 23:29 | -17.05767 | -41.30374 | 39032 ft | 479 kts | 32° |
| 2026-04-19 23:29 | -17.00409 | -41.26196 | 39035 ft | 478 kts | 32° |
| 2026-04-19 23:30 | -16.95077 | -41.22039 | 39035 ft | 478 kts | 32° |
| 2026-04-19 23:30 | -16.89742 | -41.17885 | 39029 ft | 478 kts | 32° |
| 2026-04-19 23:31 | -16.84405 | -41.13732 | 39025 ft | 478 kts | 32° |
| 2026-04-19 23:31 | -16.79193 | -41.09677 | 39024 ft | 478 kts | 32° |
| 2026-04-19 23:32 | -16.73865 | -41.05534 | 39026 ft | 476 kts | 32° |
| 2026-04-19 23:32 | -16.68558 | -41.01415 | 39024 ft | 476 kts | 32° |
| 2026-04-19 23:33 | -16.63225 | -40.97276 | 39029 ft | 476 kts | 32° |
| 2026-04-19 23:33 | -16.57932 | -40.93174 | 39035 ft | 476 kts | 32° |
| 2026-04-19 23:34 | -16.52590 | -40.89034 | 39034 ft | 477 kts | 32° |
| 2026-04-19 23:34 | -16.47399 | -40.85012 | 39038 ft | 477 kts | 32° |
| 2026-04-19 23:35 | -16.42103 | -40.80914 | 39028 ft | 476 kts | 32° |
| 2026-04-19 23:35 | -16.36885 | -40.76879 | 39016 ft | 476 kts | 32° |
| 2026-04-19 23:36 | -16.31553 | -40.72757 | 39010 ft | 475 kts | 32° |
| 2026-04-19 23:36 | -16.26250 | -40.68662 | 38999 ft | 474 kts | 32° |
| 2026-04-19 23:37 | -16.20944 | -40.64570 | 38995 ft | 473 kts | 32° |
| 2026-04-19 23:37 | -16.15698 | -40.60520 | 38983 ft | 472 kts | 32° |
| 2026-04-19 23:38 | -16.13080 | -40.58502 | 38518 ft | 473 kts | 32° |
| 2026-04-19 23:38 | -16.10411 | -40.56448 | 37482 ft | 481 kts | 32° |
| 2026-04-19 23:38 | -16.07707 | -40.54370 | 36457 ft | 487 kts | 32° |
| 2026-04-19 23:38 | -16.04959 | -40.52254 | 35567 ft | 489 kts | 33° |
| 2026-04-19 23:39 | -16.02226 | -40.50145 | 34766 ft | 489 kts | 33° |
| 2026-04-19 23:39 | -15.99590 | -40.48113 | 33999 ft | 488 kts | 33° |
| 2026-04-19 23:39 | -15.96861 | -40.46013 | 33134 ft | 489 kts | 33° |
| 2026-04-19 23:39 | -15.94135 | -40.43919 | 32255 ft | 491 kts | 33° |
| 2026-04-19 23:40 | -15.91400 | -40.41819 | 31419 ft | 493 kts | 33° |
| 2026-04-19 23:40 | -15.88664 | -40.39720 | 30603 ft | 493 kts | 33° |
| 2026-04-19 23:40 | -15.85883 | -40.37584 | 29858 ft | 491 kts | 33° |
| 2026-04-19 23:40 | -15.83171 | -40.35502 | 29337 ft | 484 kts | 33° |
| 2026-04-19 23:41 | -15.80563 | -40.33499 | 28805 ft | 478 kts | 32° |
| 2026-04-19 23:41 | -15.77898 | -40.31456 | 28232 ft | 472 kts | 32° |
| 2026-04-19 23:41 | -15.75272 | -40.29446 | 27655 ft | 464 kts | 33° |
| 2026-04-19 23:41 | -15.72724 | -40.27495 | 26773 ft | 454 kts | 33° |
| 2026-04-19 23:42 | -15.70179 | -40.25548 | 25637 ft | 448 kts | 33° |
| 2026-04-19 23:42 | -15.67708 | -40.23658 | 24564 ft | 441 kts | 34° |
| 2026-04-19 23:42 | -15.65244 | -40.21775 | 23826 ft | 437 kts | 34° |
| 2026-04-19 23:42 | -15.62843 | -40.19937 | 23368 ft | 429 kts | 34° |
| 2026-04-19 23:43 | -15.60468 | -40.18096 | 22907 ft | 424 kts | 36° |
| 2026-04-19 23:43 | -15.58213 | -40.16143 | 22460 ft | 419 kts | 40° |
| 2026-04-19 23:43 | -15.56101 | -40.14037 | 21997 ft | 415 kts | 44° |
| 2026-04-19 23:43 | -15.54125 | -40.11926 | 21551 ft | 410 kts | 45° |
| 2026-04-19 23:44 | -15.52159 | -40.09804 | 21084 ft | 406 kts | 45° |
| 2026-04-19 23:44 | -15.50202 | -40.07691 | 20609 ft | 402 kts | 45° |
| 2026-04-19 23:44 | -15.48264 | -40.05603 | 20130 ft | 398 kts | 45° |
| 2026-04-19 23:44 | -15.46346 | -40.03541 | 19652 ft | 395 kts | 45° |
| 2026-04-19 23:45 | -15.44468 | -40.01522 | 19188 ft | 392 kts | 45° |
| 2026-04-19 23:45 | -15.42563 | -39.99477 | 18715 ft | 388 kts | 46° |
| 2026-04-19 23:45 | -15.40693 | -39.97471 | 18248 ft | 385 kts | 46° |
| 2026-04-19 23:45 | -15.38860 | -39.95504 | 17788 ft | 381 kts | 46° |
| 2026-04-19 23:46 | -15.37011 | -39.93522 | 17340 ft | 378 kts | 46° |
| 2026-04-19 23:46 | -15.35197 | -39.91577 | 16886 ft | 374 kts | 46° |
| 2026-04-19 23:46 | -15.33404 | -39.89655 | 16426 ft | 371 kts | 46° |
| 2026-04-19 23:46 | -15.31601 | -39.87723 | 15973 ft | 368 kts | 46° |
| 2026-04-19 23:47 | -15.29828 | -39.85825 | 15524 ft | 365 kts | 46° |
| 2026-04-19 23:47 | -15.28094 | -39.83969 | 15078 ft | 361 kts | 47° |
| 2026-04-19 23:47 | -15.26353 | -39.82106 | 14631 ft | 358 kts | 47° |
| 2026-04-19 23:47 | -15.24624 | -39.80255 | 14182 ft | 355 kts | 47° |
| 2026-04-19 23:48 | -15.22900 | -39.78411 | 13737 ft | 352 kts | 47° |
| 2026-04-19 23:48 | -15.21200 | -39.76593 | 13296 ft | 349 kts | 47° |
| 2026-04-19 23:48 | -15.19519 | -39.74794 | 12857 ft | 347 kts | 47° |
| 2026-04-19 23:48 | -15.17853 | -39.73011 | 12417 ft | 344 kts | 47° |
| 2026-04-19 23:49 | -15.16197 | -39.71239 | 11976 ft | 342 kts | 47° |
| 2026-04-19 23:49 | -15.14541 | -39.69469 | 11531 ft | 340 kts | 47° |
| 2026-04-19 23:49 | -15.12891 | -39.67708 | 11087 ft | 337 kts | 47° |
| 2026-04-19 23:49 | -15.11280 | -39.65986 | 10659 ft | 335 kts | 47° |
| 2026-04-19 23:50 | -15.09664 | -39.64262 | 10302 ft | 329 kts | 47° |
| 2026-04-19 23:50 | -15.08075 | -39.62566 | 10108 ft | 318 kts | 47° |
| 2026-04-19 23:50 | -15.06572 | -39.60963 | 9989 ft | 305 kts | 47° |
| 2026-04-19 23:50 | -15.05157 | -39.59451 | 9689 ft | 300 kts | 47° |
| 2026-04-19 23:51 | -15.03702 | -39.57899 | 9320 ft | 298 kts | 47° |
| 2026-04-19 23:51 | -15.02278 | -39.56379 | 8959 ft | 296 kts | 47° |
| 2026-04-19 23:51 | -15.00826 | -39.54825 | 8588 ft | 294 kts | 48° |
| 2026-04-19 23:51 | -14.99571 | -39.53328 | 8251 ft | 292 kts | 53° |
| 2026-04-19 23:52 | -14.98340 | -39.51678 | 7905 ft | 289 kts | 54° |
| 2026-04-19 23:52 | -14.97163 | -39.50071 | 7559 ft | 287 kts | 54° |
| 2026-04-19 23:52 | -14.95974 | -39.48445 | 7211 ft | 286 kts | 54° |
| 2026-04-19 23:52 | -14.94773 | -39.46805 | 6853 ft | 284 kts | 54° |
| 2026-04-19 23:53 | -14.93572 | -39.45167 | 6499 ft | 282 kts | 54° |
| 2026-04-19 23:53 | -14.92435 | -39.43618 | 6167 ft | 280 kts | 54° |
| 2026-04-19 23:53 | -14.91287 | -39.42054 | 5832 ft | 278 kts | 54° |
| 2026-04-19 23:53 | -14.90121 | -39.40470 | 5494 ft | 276 kts | 54° |
| 2026-04-19 23:54 | -14.88961 | -39.38893 | 5160 ft | 274 kts | 54° |
| 2026-04-19 23:54 | -14.87813 | -39.37331 | 4827 ft | 271 kts | 53° |
| 2026-04-19 23:54 | -14.86672 | -39.35781 | 4500 ft | 268 kts | 53° |
| 2026-04-19 23:54 | -14.85536 | -39.34238 | 4172 ft | 265 kts | 53° |
| 2026-04-19 23:55 | -14.84441 | -39.32751 | 3999 ft | 255 kts | 53° |
| 2026-04-19 23:55 | -14.83394 | -39.31332 | 3987 ft | 239 kts | 54° |
| 2026-04-19 23:55 | -14.82621 | -39.29881 | 3986 ft | 223 kts | 72° |
| 2026-04-19 23:55 | -14.82318 | -39.28355 | 3868 ft | 215 kts | 84° |
| 2026-04-19 23:56 | -14.82237 | -39.26836 | 3687 ft | 206 kts | 88° |
| 2026-04-19 23:56 | -14.82214 | -39.25407 | 3512 ft | 193 kts | 89° |
| 2026-04-19 23:56 | -14.82193 | -39.24062 | 3436 ft | 180 kts | 88° |
| 2026-04-19 23:56 | -14.82166 | -39.22821 | 3230 ft | 167 kts | 88° |
| 2026-04-19 23:57 | -14.82135 | -39.21671 | 3058 ft | 153 kts | 87° |
| 2026-04-19 23:57 | -14.82103 | -39.20606 | 2944 ft | 143 kts | 86° |
| 2026-04-19 23:57 | -14.82072 | -39.19620 | 2924 ft | 134 kts | 86° |
| 2026-04-19 23:57 | -14.82042 | -39.18658 | 2756 ft | 132 kts | 86° |
| 2026-04-19 23:58 | -14.82013 | -39.17716 | 2574 ft | 131 kts | 87° |
| 2026-04-19 23:58 | -14.81983 | -39.16779 | 2400 ft | 131 kts | 86° |
| 2026-04-19 23:58 | -14.81954 | -39.15828 | 2223 ft | 130 kts | 86° |
| 2026-04-19 23:58 | -14.81926 | -39.14903 | 2051 ft | 130 kts | 86° |
| 2026-04-19 23:59 | -14.81901 | -39.14056 | 1894 ft | 130 kts | 86° |
| 2026-04-19 23:59 | -14.81874 | -39.13117 | 1717 ft | 129 kts | 86° |
| 2026-04-19 23:59 | -14.81847 | -39.12190 | 1546 ft | 129 kts | 86° |
| 2026-04-19 23:59 | -14.81819 | -39.11274 | 1375 ft | 129 kts | 87° |
| 2026-04-20 00:00 | -14.81792 | -39.10351 | 1202 ft | 129 kts | 88° |
| 2026-04-20 00:00 | -14.81767 | -39.09482 | 1047 ft | 128 kts | 88° |
| 2026-04-20 00:00 | -14.81741 | -39.08565 | 877 ft | 128 kts | 88° |
| 2026-04-20 00:00 | -14.81714 | -39.07636 | 701 ft | 128 kts | 88° |
| 2026-04-20 00:01 | -14.81688 | -39.06726 | 536 ft | 127 kts | 89° |
| 2026-04-20 00:01 | -14.81663 | -39.05813 | 352 ft | 127 kts | 89° |
| 2026-04-20 00:01 | -14.81612 | -39.03991 | 48 ft | 126 kts | 88° |
| 2026-04-20 00:02 | -14.81587 | -39.03191 | 26 ft | 80 kts | 90° |
| 2026-04-20 00:02 | -14.81575 | -39.02822 | 26 ft | 31 kts | 89° |
| 2026-04-20 00:02 | -14.81586 | -39.02663 | 26 ft | 16 kts | 119° |
| 2026-04-20 00:02 | -14.81570 | -39.02623 | 26 ft | 13 kts | 284° |
| 2026-04-20 00:03 | -14.81574 | -39.02722 | 26 ft | 14 kts | 266° |
| 2026-04-20 00:03 | -14.81576 | -39.02828 | 26 ft | 15 kts | 269° |
| 2026-04-20 00:03 | -14.81579 | -39.02937 | 26 ft | 15 kts | 269° |
| 2026-04-20 00:03 | -14.81574 | -39.03049 | 26 ft | 14 kts | 297° |
| 2026-04-20 00:04 | -14.81532 | -39.03079 | 26 ft | 0 kts | 344° |
| 2026-04-20 00:04 | -14.81525 | -39.03080 | 26 ft | 2 kts | 351° |
| 2026-04-20 00:04 | -14.81503 | -39.03084 | 26 ft | 4 kts | 341° |
| 2026-04-20 00:04 | -14.81482 | -39.03112 | 26 ft | 6 kts | 283° |
| 2026-04-20 00:05 | -14.81472 | -39.03143 | 26 ft | 3 kts | 328° |
| 2026-04-20 00:05 | -14.81452 | -39.03148 | 26 ft | 0 kts | 354° |